Aviation Digital Data Service (ADDS)

Output produced by METARs form (2201 UTC 10 February 2016)
found at http://www.aviationweather.gov/adds/metars/
 
KFIG 102154Z AUTO 25011G21KT 9SM -SN BKN027 OVC034 M07/M12 A2974 RMK AO2 SNB15 SLP093 P0000 T10721122
KFIG 102139Z AUTO 23012G20KT 7SM -SN SCT025 OVC032 M07/M12 A2973 RMK AO2 SNB15 P0000 T10671122
KFIG 102054Z AUTO 23014G20KT 10SM BKN027 BKN034 OVC070 M06/M12 A2972 RMK AO2 UPB35E39SNB10E19 SLP085 P0000 60000 T10611117 53010
KFIG 101954Z AUTO 25012G20KT 9SM SCT021 BKN028 OVC034 M06/M12 A2970 RMK AO2 SNE53 SLP079 P0000 T10561117
KFIG 101928Z AUTO 24012KT 7SM -SN BKN023 BKN030 OVC036 M06/M11 A2970 RMK AO2 P0000 T10561106
KFIG 101921Z AUTO 24011G20KT 5SM -SN SCT023 OVC030 M06/M11 A2969 RMK AO2 P0000 T10561106
KFIG 101854Z AUTO 24013G24KT 3SM -SN BKN021 OVC028 M06/M11 A2969 RMK AO2 SLP076 P0000 T10611106
KFIG 101754Z AUTO 25015G25KT 5SM -SN OVC024 M06/M11 A2969 RMK AO2 SLP074 P0000 60000 T10561106 11044 21061 58001
KFIG 101725Z AUTO 25012G21KT 4SM -SN BKN026 OVC036 M06/M10 A2969 RMK AO2 P0000 T10561100
KFIG 101654Z AUTO 24016G24KT 2SM -SN FEW020 OVC025 M06/M10 A2970 RMK AO2 SLP076 P0000 T10561100
KFIG 101650Z AUTO 24013G19KT 2SM -SN SCT020 OVC025 M06/M09 A2970 RMK AO2 P0000
KFIG 101636Z AUTO 26011G23KT 3SM -SN BKN020 OVC028 M06/M10 A2970 RMK AO2 P0000 T10561100
KFIG 101628Z AUTO 25014G23KT 2 1/2SM -SN BKN020 OVC028 M06/M09 A2970 RMK AO2 P0000 T10561094
KFIG 101554Z AUTO 26011G19KT 220V280 6SM -SN BKN024 OVC033 M04/M10 A2969 RMK AO2 SLP074 P0000 T10441100
KFIG 101542Z AUTO 25014G19KT 5SM -SN FEW017 OVC024 M05/M10 A2969 RMK AO2 P0000 T10501100
KFIG 101520Z AUTO 23015G22KT 2 1/2SM -SN BKN020 OVC025 M05/M09 A2969 RMK AO2 P0000 T10501094
KFIG 101454Z AUTO 25012G23KT 4SM -SN OVC022 M05/M09 A2968 RMK AO2 SLP069 P0000 60000 T10501089 51013
KFIG 101433Z AUTO 24012G17KT 3SM -SN BKN020 OVC027 M05/M09 A2967 RMK AO2 P0000 T10501089
KFIG 101420Z AUTO 25010KT 2 1/2SM -SN BKN021 OVC028 M05/M09 A2967 RMK AO2 P0000 T10501089
KFIG 101354Z AUTO 25009G23KT 4SM -SN OVC021 M06/M09 A2967 RMK AO2 SLP066 P0000 T10561089
KFIG 101337Z AUTO 24014G20KT 5SM -SN OVC021 M06/M09 A2966 RMK AO2 P0000 T10561089
KFIG 101320Z AUTO 24013G23KT 2SM -SN OVC022 M06/M09 A2966 RMK AO2 P0000 T10561089
KFIG 101254Z AUTO 24013G18KT 4SM -SN OVC021 M06/M09 A2966 RMK AO2 SLP061 P0000 T10561089
KFIG 101240Z AUTO 24011KT 2SM -SN OVC021 M06/M09 A2965 RMK AO2 P0000 T10561089
KFIG 101232Z AUTO 24009G17KT 1 3/4SM -SN OVC021 M06/M09 A2965 RMK AO2 P0000 T10561089
KFIG 101217Z AUTO 25013G19KT 2SM -SN OVC022 M06/M09 A2965 RMK AO2 P0000 T10561089
KFIG 101154Z AUTO 25012G20KT 4SM -SN OVC022 M06/M09 A2964 RMK AO2 SNB1055 SLP054 P0000 60000 70014 T10561089 11033 21056 53014
KFIG 101054Z AUTO 24012G18KT 9SM OVC022 M05/M08 A2962 RMK AO2 SNE51 SLP050 P0000 T10501083
KFIG 100954Z AUTO 24013G21KT 5SM -SN BKN021 OVC025 M04/M08 A2961 RMK AO2 SLP043 P0000 T10441083
KFIG 100944Z AUTO 25011G19KT 4SM -SN BKN021 OVC025 M04/M08 A2960 RMK AO2 P0000 T10441078
KFIG 100931Z AUTO 25010KT 2SM -SN BKN019 OVC027 M04/M07 A2960 RMK AO2 P0000 T10441072
KFIG 100924Z AUTO 23009KT 3SM -SN SCT019 BKN024 OVC029 M04/M07 A2960 RMK AO2 P0000 T10441072
KFIG 100854Z AUTO 25008G16KT 9SM -SN FEW018 FEW025 OVC032 M04/M08 A2960 RMK AO2 SNB41 SLP039 P0000 60000 T10441083 53002
KFIG 100843Z AUTO 26008KT 9SM -SN FEW022 OVC031 M04/M08 A2959 RMK AO2 SNB41 P0000 T10441083
KFIG 100754Z AUTO 25011G17KT 10SM OVC023 M04/M08 A2959 RMK AO2 SNE15 SLP037 P0000 T10391078
KFIG 100654Z AUTO 25008KT 7SM -SN SCT020 OVC029 M03/M07 A2959 RMK AO2 SNB15 SLP034 P0000 T10331067
KFIG 100614Z AUTO 23009KT 9SM BKN016 OVC023 M03/M07 A2959 RMK AO2 T10331067
KFIG 100554Z AUTO 25011KT 10SM OVC014 M03/M06 A2959 RMK AO2 SLP035 60000 I6001 T10331061 11017 21033 58002
KFIG 100505Z AUTO 24009G16KT 10SM OVC015 M03/M06 A2959 RMK AO2 T10331061
KFIG 100454Z AUTO 25009KT 10SM OVC013 M03/M06 A2960 RMK AO2 SLP037 T10331056 400221033
KFIG 100417Z AUTO 25010KT 9SM OVC010 M03/M06 A2960 RMK AO2 T10281056
KFIG 100354Z AUTO 25007G18KT 8SM OVC009 M03/M06 A2960 RMK AO2 SLP037 T10331056
KFIG 100254Z AUTO 25012G20KT 9SM OVC009 M03/M05 A2960 RMK AO2 UPB06E16FZRAB22E39 CIG 006V011 SLP037 P0000 60000 I1001 I3001 T10281050 51006
KFIG 100245Z AUTO 25013G19KT 7SM OVC008 M03/M05 A2959 RMK AO2 UPB06E16FZRAB22E39 CIG 006V011 P0000 I1001 T10281050
KFIG 100228Z AUTO 25010KT 4SM -FZRA BR OVC008 M03/M04 A2959 RMK AO2 UPB06E16FZRAB22 CIG 006V011 P0000 I1001 T10281044
KFIG 100208Z AUTO 24009G18KT 6SM UP BR OVC009 M02/M04 A2959 RMK AO2 UPB06 CIG 007V013 P0000 I1000 T10221044
KFIG 100154Z AUTO 23008KT 8SM OVC011 M02/M04 A2959 RMK AO2 CIG 008V013 SLP035 T10221044
KFIG 100141Z AUTO 24010KT 10SM OVC012 M02/M04 A2959 RMK AO2 T10221044
KFIG 100054Z AUTO 23008KT 10SM FEW017 OVC029 M02/M04 A2958 RMK AO2 SLP033 T10171044
KFIG 100007Z AUTO 23007KT 10SM SCT017 SCT024 OVC032 M02/M04 A2958 RMK AO2 T10171039
KFIG 092354Z AUTO 22007KT 10SM SCT018 BKN022 OVC034 M02/M04 A2958 RMK AO2 UPB30E38 SLP030 P0000 60010 T10171039 10017 21022 51018
KFIG 092326Z AUTO 21008KT 10SM BKN023 OVC031 M02/M03 A2956 RMK AO2 T10171033
KFIG 092254Z AUTO 23007KT 10SM OVC033 M02/M03 A2955 RMK AO2 UPE10 SLP021 P0000 T10171033
KFIG 092252Z AUTO 23007KT 10SM BKN031 OVC035 M02/M03 A2955 RMK AO2 UPE10 P0000
KFIG 092221Z AUTO 22008KT 10SM SCT014 BKN019 OVC024 M02/M03 A2953 RMK AO2 UPE10 P0000 T10171033
KFIG 092154Z AUTO 21008KT 9SM UP FEW006 BKN014 OVC022 M02/M03 A2952 RMK AO2 UPB51SNE51 SLP011 P0001 T10171033
KFIG 092139Z AUTO 22010KT 3SM -SN BR SCT007 BKN014 OVC022 M02/M03 A2951 RMK AO2 P0001 T10221033
KFIG 092117Z AUTO 21010KT 2SM -SN BR BKN005 OVC011 M02/M03 A2950 RMK AO2 P0001 T10171033
KFIG 092111Z AUTO 22012G16KT 3/4SM -SN BR BKN005 OVC011 M02/M03 A2950 RMK AO2 P0001 T10171033
KFIG 092054Z AUTO 22007KT 1/4SM SN FZFG OVC005 M02/M03 A2949 RMK AO2 SLP002 P0006 60009 T10171028 53010
KFIG 092045Z AUTO 21009KT 1/4SM +SN FZFG VV006 M02/M03 A2949 RMK AO2 P0005 T10171028
KFIG 092032Z AUTO 22009KT 3/4SM -SN BR VV006 M01/M03 A2948 RMK AO2 P0004 T10111028
KFIG 092022Z AUTO 22008KT 1/4SM SN FZFG VV005 M01/M02 A2948 RMK AO2 P0004 T10111022
KFIG 092013Z AUTO 22009KT 1/4SM +SN FZFG VV004 M01/M03 A2948 RMK AO2 P0003 T10111028
KFIG 092004Z AUTO 22008KT 1/4SM +SN FZFG VV005 M01/M02 A2947 RMK AO2 P0002 T10111022
KFIG 091954Z AUTO 22009KT 3/4SM -SN BR BKN004 OVC007 M01/M02 A2947 RMK AO2 SLP994 P0001 T10111022
KFIG 091929Z AUTO 21010KT 3/4SM -SN BR BKN003 BKN009 OVC031 M01/M02 A2946 RMK AO2 P0000 T10061022
KFIG 091924Z AUTO 21010KT 1 3/4SM -SN BR BKN005 BKN009 OVC032 01/M02 A2946 RMK AO2 P0000 T00061017
KFIG 091920Z AUTO 20007KT 4SM -SN BR SCT005 BKN009 OVC032 01/M01 A2946 RMK AO2 P0000 T00061011
KFIG 091910Z AUTO 20004KT 3SM -SN BR FEW005 BKN019 OVC034 01/M01 A2946 RMK AO2 P0000 T00061011
KFIG 091857Z AUTO 23004KT 1 1/2SM -SN BR SCT005 OVC017 01/M01 A2946 RMK AO2 P0000 T00061011
KFIG 091854Z AUTO 25003KT 3/4SM -SN BR SCT005 BKN012 OVC017 01/M01 A2946 RMK AO2 SLP990 P0002 T00061011
KFIG 091851Z AUTO 26003KT 1/2SM -SN FG SCT005 BKN009 OVC015 01/M01 A2946 RMK AO2 P0002
KFIG 091843Z AUTO 32004KT 1 1/2SM -SN BR BKN007 BKN011 OVC020 01/M02 A2946 RMK AO2 P0000 T00061017
KFIG 091834Z AUTO 24003KT 5SM -SN BR BKN009 BKN013 OVC035 01/M01 A2946 RMK AO2 P0000 T00111011
KFIG 091828Z AUTO 21005KT 3SM -SN BR SCT009 BKN027 OVC035 01/M01 A2946 RMK AO2 P0000 T00111011
KFIG 091822Z AUTO 21005KT 2SM -SN FEW009 BKN013 OVC033 01/M02 A2946 RMK AO2 P0000 T00111017
KFIG 091819Z AUTO 24005KT 2SM -SN SCT013 BKN024 OVC033 01/M02 A2946 RMK AO2 P0000 T00111017
KFIG 091754Z AUTO 21009KT 3SM -SN SCT011 BKN017 OVC029 01/M02 A2947 RMK AO2 SLP993 P0001 60004 T00111022 10022 21011 58012
KFIG 091750Z AUTO 22007KT 2SM -SN SCT011 BKN016 OVC024 01/M02 A2947 RMK AO2 P0001
KFIG 091743Z AUTO 19004KT 1 3/4SM -SN BKN014 OVC019 01/M02 A2948 RMK AO2 P0001 T00061022
KFIG 091737Z AUTO 18003KT 4SM -SN BKN014 OVC022 01/M02 A2948 RMK AO2 P0000 T00061022
KFIG 091734Z AUTO VRB04KT 2SM -SN SCT011 BKN016 OVC022 01/M02 A2948 RMK AO2 VIS 1V5 P0000 T00061022
KFIG 091722Z AUTO 20006KT 1 3/4SM -SN SCT010 BKN026 OVC043 01/M02 A2949 RMK AO2 VIS 1V5 P0000 T00111017
KFIG 091705Z AUTO 17004KT 3SM -SN BR BKN019 BKN032 OVC043 01/M01 A2949 RMK AO2 P0000 T00111011
KFIG 091702Z AUTO 17003KT 1SM -SN BKN019 BKN027 OVC034 01/M02 A2949 RMK AO2 P0000 T00111017
KFIG 091654Z AUTO 18004KT 1/2SM SN FG BKN014 OVC025 01/M02 A2950 RMK AO2 SNB13 SLP001 P0003 T00061017
KFIG 091644Z AUTO 00000KT 3/4SM -SN BR BKN014 BKN020 OVC033 01/M02 A2950 RMK AO2 SNB13 P0001 T00061017
KFIG 091637Z AUTO 20004KT 1 1/2SM -SN SCT014 BKN024 OVC033 01/M02 A2950 RMK AO2 SNB13 P0000 T00111022
KFIG 091605Z AUTO 18003KT 8SM BKN014 BKN029 02/M02 A2951 RMK AO2 T00171017
KFIG 091554Z AUTO VRB03KT 10SM FEW006 SCT012 02/M02 A2951 RMK AO2 SLP004 T00171017
KFIG 091544Z AUTO 20003KT 10SM SCT006 BKN012 01/M02 A2951 RMK AO2 T00111022
KFIG 091513Z AUTO 18003KT 6SM BR OVC005 01/M02 A2952 RMK AO2 T00061017
KFIG 091454Z AUTO 00000KT 4SM BR OVC004 00/M02 A2952 RMK AO2 SNE26 SLP009 P0000 60000 T00001017 50004
KFIG 091446Z AUTO 00000KT 4SM BR OVC004 00/M02 A2952 RMK AO2 SNE26 P0000 T00001017
KFIG 091429Z AUTO 00000KT 2SM BR OVC004 00/M02 A2952 RMK AO2 SNE26 P0000 T00001017
KFIG 091425Z AUTO 00000KT 1 3/4SM -SN BR OVC005 00/M02 A2952 RMK AO2 P0000 T00001017
KFIG 091354Z AUTO 00000KT 1 1/4SM -SN BR BKN004 OVC027 00/M02 A2952 RMK AO2 SNB11 SLP010 P0000 T00001017
KFIG 091336Z AUTO 00000KT 1SM -SN BR BKN004 OVC027 M01/M02 A2952 RMK AO2 SNB11 P0000 T10061017
KFIG 091320Z AUTO 00000KT 1 1/2SM -SN BR FEW006 OVC033 M01/M02 A2952 RMK AO2 SNB11 P0000 T10061017
KFIG 091254Z AUTO 00000KT 2SM BR OVC045 M01/M02 A2952 RMK AO2 SLP008 T10061017
KFIG 091252Z AUTO 00000KT 1 1/4SM BR FEW025 BKN045 OVC055 M01/M02 A2952 RMK AO2
KFIG 091239Z AUTO 00000KT 1/4SM FZFG SCT024 OVC043 M01/M02 A2951 RMK AO2 T10111022
KFIG 091229Z AUTO 00000KT 1/4SM FZFG BKN024 BKN043 OVC050 M01/M02 A2951 RMK AO2 T10111022
KFIG 091224Z AUTO 00000KT 1 3/4SM BR SCT019 BKN024 OVC049 M01/M02 A2951 RMK AO2 T10061022
KFIG 091154Z AUTO 14003KT 4SM BR OVC019 M01/M02 A2951 RMK AO2 SLP004 60000 T10061022 11006 21011 55000
KFIG 091121Z AUTO 00000KT 3SM BR SCT011 BKN018 OVC040 M01/M02 A2950 RMK AO2 T10061022
KFIG 091054Z AUTO 00000KT 4SM BR BKN041 OVC055 M01/M02 A2950 RMK AO2 SLP001 T10111022